sensor_id;sensor_type;location;lat;lon;timestamp;P1;durP1;ratioP1;P2;durP2;ratioP2
68858;SDS011;55864;49.238;8.092;2023-03-20T00:00:55;6.37;;;2.90;;
68858;SDS011;55864;49.238;8.092;2023-03-20T00:02:55;5.93;;;2.63;;
68858;SDS011;55864;49.238;8.092;2023-03-20T00:04:56;5.18;;;2.05;;
68858;SDS011;55864;49.238;8.092;2023-03-20T00:06:57;5.50;;;2.40;;
68858;SDS011;55864;49.238;8.092;2023-03-20T00:08:59;5.60;;;2.35;;
68858;SDS011;55864;49.238;8.092;2023-03-20T00:10:59;5.30;;;2.30;;
68858;SDS011;55864;49.238;8.092;2023-03-20T00:13:00;5.75;;;2.40;;
68858;SDS011;55864;49.238;8.092;2023-03-20T00:15:01;5.70;;;2.50;;
68858;SDS011;55864;49.238;8.092;2023-03-20T00:17:06;6.25;;;2.67;;
68858;SDS011;55864;49.238;8.092;2023-03-20T00:19:12;6.43;;;3.25;;
68858;SDS011;55864;49.238;8.092;2023-03-20T00:21:15;8.60;;;4.38;;
68858;SDS011;55864;49.238;8.092;2023-03-20T00:23:17;7.50;;;3.78;;
68858;SDS011;55864;49.238;8.092;2023-03-20T00:25:19;7.47;;;3.40;;
68858;SDS011;55864;49.238;8.092;2023-03-20T00:27:22;8.30;;;3.83;;
68858;SDS011;55864;49.238;8.092;2023-03-20T00:29:23;7.53;;;3.40;;
68858;SDS011;55864;49.238;8.092;2023-03-20T00:31:26;7.20;;;3.38;;
68858;SDS011;55864;49.238;8.092;2023-03-20T00:33:29;7.88;;;3.40;;
68858;SDS011;55864;49.238;8.092;2023-03-20T00:35:30;6.57;;;3.45;;
68858;SDS011;55864;49.238;8.092;2023-03-20T00:37:30;8.02;;;3.80;;
68858;SDS011;55864;49.238;8.092;2023-03-20T00:39:31;8.57;;;3.72;;
68858;SDS011;55864;49.238;8.092;2023-03-20T00:41:40;7.65;;;3.38;;
68858;SDS011;55864;49.238;8.092;2023-03-20T00:43:43;6.57;;;3.05;;
68858;SDS011;55864;49.238;8.092;2023-03-20T00:45:43;8.30;;;3.83;;
68858;SDS011;55864;49.238;8.092;2023-03-20T00:47:45;7.38;;;3.47;;
68858;SDS011;55864;49.238;8.092;2023-03-20T00:49:48;7.80;;;3.92;;
68858;SDS011;55864;49.238;8.092;2023-03-20T00:51:50;7.13;;;3.53;;
68858;SDS011;55864;49.238;8.092;2023-03-20T00:53:51;8.68;;;3.70;;
68858;SDS011;55864;49.238;8.092;2023-03-20T00:55:51;8.43;;;4.00;;
68858;SDS011;55864;49.238;8.092;2023-03-20T00:57:54;7.97;;;3.72;;
68858;SDS011;55864;49.238;8.092;2023-03-20T00:59:57;10.95;;;5.00;;
68858;SDS011;55864;49.238;8.092;2023-03-20T01:02:01;10.30;;;5.10;;
68858;SDS011;55864;49.238;8.092;2023-03-20T01:04:04;10.32;;;5.32;;
68858;SDS011;55864;49.238;8.092;2023-03-20T01:06:10;10.52;;;5.65;;
68858;SDS011;55864;49.238;8.092;2023-03-20T01:08:12;9.88;;;5.00;;
68858;SDS011;55864;49.238;8.092;2023-03-20T01:10:14;11.20;;;5.55;;
68858;SDS011;55864;49.238;8.092;2023-03-20T01:12:15;11.30;;;5.80;;
68858;SDS011;55864;49.238;8.092;2023-03-20T01:14:17;10.52;;;5.35;;
68858;SDS011;55864;49.238;8.092;2023-03-20T01:16:19;11.07;;;5.55;;
68858;SDS011;55864;49.238;8.092;2023-03-20T01:20:23;10.65;;;5.28;;
68858;SDS011;55864;49.238;8.092;2023-03-20T01:22:27;10.82;;;6.03;;
68858;SDS011;55864;49.238;8.092;2023-03-20T01:24:27;12.48;;;6.47;;
68858;SDS011;55864;49.238;8.092;2023-03-20T01:26:29;11.52;;;6.32;;
68858;SDS011;55864;49.238;8.092;2023-03-20T01:28:32;12.63;;;6.60;;
68858;SDS011;55864;49.238;8.092;2023-03-20T01:30:34;11.25;;;6.38;;
68858;SDS011;55864;49.238;8.092;2023-03-20T01:32:35;12.50;;;6.20;;
68858;SDS011;55864;49.238;8.092;2023-03-20T01:34:35;13.73;;;7.00;;
68858;SDS011;55864;49.238;8.092;2023-03-20T01:36:36;12.73;;;6.85;;
68858;SDS011;55864;49.238;8.092;2023-03-20T01:38:38;13.93;;;7.20;;
68858;SDS011;55864;49.238;8.092;2023-03-20T01:40:42;14.80;;;8.00;;
68858;SDS011;55864;49.238;8.092;2023-03-20T01:42:50;13.55;;;7.15;;
68858;SDS011;55864;49.238;8.092;2023-03-20T01:44:50;15.20;;;7.97;;
68858;SDS011;55864;49.238;8.092;2023-03-20T01:46:52;15.55;;;8.38;;
68858;SDS011;55864;49.238;8.092;2023-03-20T01:48:59;14.50;;;8.00;;
68858;SDS011;55864;49.238;8.092;2023-03-20T01:51:06;15.23;;;7.80;;
68858;SDS011;55864;49.238;8.092;2023-03-20T01:53:09;15.55;;;8.07;;
68858;SDS011;55864;49.238;8.092;2023-03-20T01:55:18;16.40;;;7.97;;
68858;SDS011;55864;49.238;8.092;2023-03-20T01:57:25;15.13;;;8.25;;
68858;SDS011;55864;49.238;8.092;2023-03-20T01:59:28;15.02;;;8.15;;
68858;SDS011;55864;49.238;8.092;2023-03-20T02:01:31;17.15;;;8.00;;
68858;SDS011;55864;49.238;8.092;2023-03-20T02:03:34;14.77;;;7.47;;
68858;SDS011;55864;49.238;8.092;2023-03-20T02:05:37;17.50;;;8.63;;
68858;SDS011;55864;49.238;8.092;2023-03-20T02:07:39;16.45;;;8.27;;
68858;SDS011;55864;49.238;8.092;2023-03-20T02:09:42;16.55;;;8.65;;
68858;SDS011;55864;49.238;8.092;2023-03-20T02:11:48;14.82;;;8.18;;
68858;SDS011;55864;49.238;8.092;2023-03-20T02:13:52;16.83;;;8.75;;
68858;SDS011;55864;49.238;8.092;2023-03-20T02:15:57;15.82;;;7.82;;
68858;SDS011;55864;49.238;8.092;2023-03-20T02:18:14;15.57;;;7.70;;
68858;SDS011;55864;49.238;8.092;2023-03-20T02:20:20;16.35;;;8.45;;
68858;SDS011;55864;49.238;8.092;2023-03-20T02:22:42;16.40;;;7.72;;
68858;SDS011;55864;49.238;8.092;2023-03-20T02:27:40;14.00;;;7.10;;
68858;SDS011;55864;49.238;8.092;2023-03-20T02:29:59;14.13;;;7.00;;
68858;SDS011;55864;49.238;8.092;2023-03-20T02:34:56;19.83;;;8.15;;
68858;SDS011;55864;49.238;8.092;2023-03-20T02:39:57;14.05;;;7.18;;
68858;SDS011;55864;49.238;8.092;2023-03-20T02:42:10;14.38;;;7.32;;
68858;SDS011;55864;49.238;8.092;2023-03-20T02:44:20;15.70;;;8.07;;
68858;SDS011;55864;49.238;8.092;2023-03-20T02:46:31;17.13;;;8.10;;
68858;SDS011;55864;49.238;8.092;2023-03-20T02:48:45;17.45;;;8.95;;
68858;SDS011;55864;49.238;8.092;2023-03-20T02:50:55;18.57;;;9.00;;
68858;SDS011;55864;49.238;8.092;2023-03-20T02:53:10;18.30;;;9.38;;
68858;SDS011;55864;49.238;8.092;2023-03-20T02:55:21;16.23;;;8.48;;
68858;SDS011;55864;49.238;8.092;2023-03-20T02:57:32;18.77;;;9.32;;
68858;SDS011;55864;49.238;8.092;2023-03-20T02:59:44;22.08;;;9.40;;
68858;SDS011;55864;49.238;8.092;2023-03-20T03:01:51;16.65;;;8.20;;
68858;SDS011;55864;49.238;8.092;2023-03-20T03:03:57;16.50;;;8.15;;
68858;SDS011;55864;49.238;8.092;2023-03-20T03:06:03;19.05;;;9.10;;
68858;SDS011;55864;49.238;8.092;2023-03-20T03:08:09;17.00;;;8.50;;
68858;SDS011;55864;49.238;8.092;2023-03-20T03:10:14;18.45;;;8.50;;
68858;SDS011;55864;49.238;8.092;2023-03-20T03:12:37;18.17;;;8.50;;
68858;SDS011;55864;49.238;8.092;2023-03-20T03:14:41;17.05;;;7.95;;
68858;SDS011;55864;49.238;8.092;2023-03-20T03:16:48;17.30;;;8.40;;
68858;SDS011;55864;49.238;8.092;2023-03-20T03:18:54;17.50;;;8.35;;
68858;SDS011;55864;49.238;8.092;2023-03-20T03:21:05;17.45;;;8.05;;
68858;SDS011;55864;49.238;8.092;2023-03-20T03:23:14;17.55;;;7.93;;
68858;SDS011;55864;49.238;8.092;2023-03-20T03:25:28;17.10;;;7.70;;
68858;SDS011;55864;49.238;8.092;2023-03-20T03:27:58;16.17;;;7.30;;
68858;SDS011;55864;49.238;8.092;2023-03-20T03:30:03;11.93;;;5.72;;
68858;SDS011;55864;49.238;8.092;2023-03-20T03:32:18;13.23;;;6.43;;
68858;SDS011;55864;49.238;8.092;2023-03-20T03:34:24;14.48;;;6.53;;
68858;SDS011;55864;49.238;8.092;2023-03-20T03:36:29;13.70;;;6.80;;
68858;SDS011;55864;49.238;8.092;2023-03-20T03:38:39;11.68;;;6.35;;
68858;SDS011;55864;49.238;8.092;2023-03-20T03:40:50;12.75;;;6.13;;
68858;SDS011;55864;49.238;8.092;2023-03-20T03:42:57;12.70;;;6.43;;
68858;SDS011;55864;49.238;8.092;2023-03-20T03:45:04;12.70;;;6.38;;
68858;SDS011;55864;49.238;8.092;2023-03-20T03:47:12;14.50;;;6.75;;
68858;SDS011;55864;49.238;8.092;2023-03-20T03:49:19;12.90;;;6.60;;
68858;SDS011;55864;49.238;8.092;2023-03-20T03:51:24;14.60;;;7.10;;
68858;SDS011;55864;49.238;8.092;2023-03-20T03:53:35;14.60;;;6.82;;
68858;SDS011;55864;49.238;8.092;2023-03-20T03:55:42;13.15;;;6.22;;
68858;SDS011;55864;49.238;8.092;2023-03-20T03:57:47;16.77;;;7.47;;
68858;SDS011;55864;49.238;8.092;2023-03-20T03:59:52;14.48;;;6.95;;
68858;SDS011;55864;49.238;8.092;2023-03-20T04:01:55;15.15;;;7.50;;
68858;SDS011;55864;49.238;8.092;2023-03-20T04:03:57;14.37;;;6.73;;
68858;SDS011;55864;49.238;8.092;2023-03-20T04:06:00;16.70;;;7.53;;
68858;SDS011;55864;49.238;8.092;2023-03-20T04:08:02;16.45;;;8.18;;
68858;SDS011;55864;49.238;8.092;2023-03-20T04:10:04;15.02;;;7.80;;
68858;SDS011;55864;49.238;8.092;2023-03-20T04:12:08;15.93;;;8.32;;
68858;SDS011;55864;49.238;8.092;2023-03-20T04:14:34;17.48;;;8.60;;
68858;SDS011;55864;49.238;8.092;2023-03-20T04:16:34;16.73;;;8.23;;
68858;SDS011;55864;49.238;8.092;2023-03-20T04:18:35;16.98;;;8.63;;
68858;SDS011;55864;49.238;8.092;2023-03-20T04:20:36;20.17;;;8.32;;
68858;SDS011;55864;49.238;8.092;2023-03-20T04:22:39;17.85;;;8.30;;
68858;SDS011;55864;49.238;8.092;2023-03-20T04:24:41;20.08;;;8.70;;
68858;SDS011;55864;49.238;8.092;2023-03-20T04:26:41;20.38;;;9.55;;
68858;SDS011;55864;49.238;8.092;2023-03-20T04:28:43;21.15;;;9.55;;
68858;SDS011;55864;49.238;8.092;2023-03-20T04:30:53;18.08;;;8.68;;
68858;SDS011;55864;49.238;8.092;2023-03-20T04:33:05;20.23;;;9.80;;
68858;SDS011;55864;49.238;8.092;2023-03-20T04:35:15;19.00;;;9.57;;
68858;SDS011;55864;49.238;8.092;2023-03-20T04:37:24;20.58;;;9.38;;
68858;SDS011;55864;49.238;8.092;2023-03-20T04:39:33;20.13;;;9.50;;
68858;SDS011;55864;49.238;8.092;2023-03-20T04:41:35;23.65;;;10.30;;
68858;SDS011;55864;49.238;8.092;2023-03-20T04:43:36;24.77;;;9.88;;
68858;SDS011;55864;49.238;8.092;2023-03-20T04:45:39;22.48;;;10.40;;
68858;SDS011;55864;49.238;8.092;2023-03-20T04:47:41;24.83;;;9.52;;
68858;SDS011;55864;49.238;8.092;2023-03-20T04:49:43;23.52;;;10.15;;
68858;SDS011;55864;49.238;8.092;2023-03-20T04:51:43;23.30;;;10.07;;
68858;SDS011;55864;49.238;8.092;2023-03-20T04:53:46;22.90;;;10.65;;
68858;SDS011;55864;49.238;8.092;2023-03-20T04:55:47;21.50;;;11.05;;
68858;SDS011;55864;49.238;8.092;2023-03-20T04:57:47;22.95;;;10.00;;
68858;SDS011;55864;49.238;8.092;2023-03-20T04:59:48;23.58;;;10.60;;
68858;SDS011;55864;49.238;8.092;2023-03-20T05:01:50;22.05;;;9.95;;
68858;SDS011;55864;49.238;8.092;2023-03-20T05:03:51;23.70;;;10.33;;
68858;SDS011;55864;49.238;8.092;2023-03-20T05:05:52;25.10;;;10.20;;
68858;SDS011;55864;49.238;8.092;2023-03-20T05:07:53;22.17;;;9.82;;
68858;SDS011;55864;49.238;8.092;2023-03-20T05:10:03;22.60;;;10.23;;
68858;SDS011;55864;49.238;8.092;2023-03-20T05:12:10;24.13;;;9.93;;
68858;SDS011;55864;49.238;8.092;2023-03-20T05:14:29;22.48;;;10.27;;
68858;SDS011;55864;49.238;8.092;2023-03-20T05:16:56;22.10;;;9.93;;
68858;SDS011;55864;49.238;8.092;2023-03-20T05:19:12;23.85;;;9.68;;
68858;SDS011;55864;49.238;8.092;2023-03-20T05:21:26;25.40;;;10.27;;
68858;SDS011;55864;49.238;8.092;2023-03-20T05:23:45;25.70;;;10.82;;
68858;SDS011;55864;49.238;8.092;2023-03-20T05:26:18;23.52;;;10.40;;
68858;SDS011;55864;49.238;8.092;2023-03-20T05:28:50;24.15;;;10.25;;
68858;SDS011;55864;49.238;8.092;2023-03-20T05:31:05;23.52;;;10.50;;
68858;SDS011;55864;49.238;8.092;2023-03-20T05:33:17;25.77;;;11.00;;
68858;SDS011;55864;49.238;8.092;2023-03-20T05:35:38;25.63;;;10.77;;
68858;SDS011;55864;49.238;8.092;2023-03-20T05:37:59;23.42;;;9.95;;
68858;SDS011;55864;49.238;8.092;2023-03-20T05:40:27;24.20;;;10.30;;
68858;SDS011;55864;49.238;8.092;2023-03-20T05:42:41;24.95;;;10.13;;
68858;SDS011;55864;49.238;8.092;2023-03-20T05:45:00;25.17;;;10.73;;
68858;SDS011;55864;49.238;8.092;2023-03-20T05:47:18;25.33;;;10.68;;
68858;SDS011;55864;49.238;8.092;2023-03-20T05:49:39;28.98;;;11.48;;
68858;SDS011;55864;49.238;8.092;2023-03-20T05:51:56;27.25;;;10.77;;
68858;SDS011;55864;49.238;8.092;2023-03-20T05:54:04;26.63;;;11.27;;
68858;SDS011;55864;49.238;8.092;2023-03-20T05:56:24;23.98;;;10.07;;
68858;SDS011;55864;49.238;8.092;2023-03-20T05:58:39;20.57;;;9.53;;
68858;SDS011;55864;49.238;8.092;2023-03-20T06:00:59;25.90;;;11.40;;
68858;SDS011;55864;49.238;8.092;2023-03-20T06:03:17;26.23;;;10.93;;
68858;SDS011;55864;49.238;8.092;2023-03-20T06:05:36;23.35;;;9.90;;
68858;SDS011;55864;49.238;8.092;2023-03-20T06:07:37;25.73;;;11.00;;
68858;SDS011;55864;49.238;8.092;2023-03-20T06:09:43;27.15;;;10.50;;
68858;SDS011;55864;49.238;8.092;2023-03-20T06:11:46;24.95;;;9.90;;
68858;SDS011;55864;49.238;8.092;2023-03-20T06:13:50;27.27;;;11.40;;
68858;SDS011;55864;49.238;8.092;2023-03-20T06:15:51;26.63;;;10.87;;
68858;SDS011;55864;49.238;8.092;2023-03-20T06:17:52;22.48;;;9.85;;
68858;SDS011;55864;49.238;8.092;2023-03-20T06:19:52;29.77;;;11.03;;
68858;SDS011;55864;49.238;8.092;2023-03-20T06:21:55;25.83;;;10.57;;
68858;SDS011;55864;49.238;8.092;2023-03-20T06:23:57;24.98;;;10.30;;
68858;SDS011;55864;49.238;8.092;2023-03-20T06:25:57;28.58;;;10.35;;
68858;SDS011;55864;49.238;8.092;2023-03-20T06:27:59;39.83;;;12.30;;
68858;SDS011;55864;49.238;8.092;2023-03-20T06:30:00;25.05;;;10.48;;
68858;SDS011;55864;49.238;8.092;2023-03-20T06:32:05;29.53;;;11.20;;
68858;SDS011;55864;49.238;8.092;2023-03-20T06:34:06;28.45;;;11.20;;
68858;SDS011;55864;49.238;8.092;2023-03-20T06:36:13;28.70;;;11.35;;
68858;SDS011;55864;49.238;8.092;2023-03-20T06:38:16;26.35;;;10.32;;
68858;SDS011;55864;49.238;8.092;2023-03-20T06:40:16;27.67;;;10.68;;
68858;SDS011;55864;49.238;8.092;2023-03-20T06:42:18;26.33;;;11.35;;
68858;SDS011;55864;49.238;8.092;2023-03-20T06:44:21;22.63;;;9.55;;
68858;SDS011;55864;49.238;8.092;2023-03-20T06:46:40;24.65;;;10.52;;
68858;SDS011;55864;49.238;8.092;2023-03-20T06:48:40;24.23;;;10.93;;
68858;SDS011;55864;49.238;8.092;2023-03-20T06:50:41;25.27;;;9.65;;
68858;SDS011;55864;49.238;8.092;2023-03-20T06:52:42;25.65;;;11.00;;
68858;SDS011;55864;49.238;8.092;2023-03-20T06:55:22;23.75;;;10.13;;
68858;SDS011;55864;49.238;8.092;2023-03-20T06:57:23;24.08;;;9.85;;
68858;SDS011;55864;49.238;8.092;2023-03-20T06:59:24;22.98;;;9.38;;
68858;SDS011;55864;49.238;8.092;2023-03-20T07:01:29;22.23;;;9.57;;
68858;SDS011;55864;49.238;8.092;2023-03-20T07:03:30;24.48;;;9.95;;
68858;SDS011;55864;49.238;8.092;2023-03-20T07:05:31;26.43;;;9.60;;
68858;SDS011;55864;49.238;8.092;2023-03-20T07:07:32;23.88;;;9.90;;
68858;SDS011;55864;49.238;8.092;2023-03-20T07:09:33;24.13;;;9.80;;
68858;SDS011;55864;49.238;8.092;2023-03-20T07:11:36;22.93;;;9.80;;
68858;SDS011;55864;49.238;8.092;2023-03-20T07:13:36;23.13;;;9.90;;
68858;SDS011;55864;49.238;8.092;2023-03-20T07:15:45;24.50;;;9.98;;
68858;SDS011;55864;49.238;8.092;2023-03-20T07:17:55;24.33;;;9.77;;
68858;SDS011;55864;49.238;8.092;2023-03-20T07:19:56;26.57;;;9.30;;
68858;SDS011;55864;49.238;8.092;2023-03-20T07:21:57;23.83;;;10.13;;
68858;SDS011;55864;49.238;8.092;2023-03-20T07:23:59;25.27;;;10.37;;
68858;SDS011;55864;49.238;8.092;2023-03-20T07:26:00;26.47;;;10.60;;
68858;SDS011;55864;49.238;8.092;2023-03-20T07:28:02;28.27;;;10.77;;
68858;SDS011;55864;49.238;8.092;2023-03-20T07:30:03;23.43;;;10.17;;
68858;SDS011;55864;49.238;8.092;2023-03-20T07:32:05;26.20;;;10.53;;
68858;SDS011;55864;49.238;8.092;2023-03-20T07:34:09;26.40;;;10.73;;
68858;SDS011;55864;49.238;8.092;2023-03-20T07:36:11;24.70;;;10.00;;
68858;SDS011;55864;49.238;8.092;2023-03-20T07:38:12;26.45;;;10.68;;
68858;SDS011;55864;49.238;8.092;2023-03-20T07:40:22;29.33;;;10.55;;
68858;SDS011;55864;49.238;8.092;2023-03-20T07:42:27;23.60;;;10.27;;
68858;SDS011;55864;49.238;8.092;2023-03-20T07:44:46;24.45;;;9.43;;
68858;SDS011;55864;49.238;8.092;2023-03-20T07:46:47;22.75;;;9.48;;
68858;SDS011;55864;49.238;8.092;2023-03-20T07:48:49;25.30;;;9.75;;
68858;SDS011;55864;49.238;8.092;2023-03-20T07:50:50;24.77;;;10.47;;
68858;SDS011;55864;49.238;8.092;2023-03-20T07:52:50;23.65;;;10.15;;
68858;SDS011;55864;49.238;8.092;2023-03-20T07:56:54;22.33;;;8.88;;
68858;SDS011;55864;49.238;8.092;2023-03-20T07:58:55;26.63;;;9.98;;
68858;SDS011;55864;49.238;8.092;2023-03-20T08:00:57;24.25;;;10.00;;
68858;SDS011;55864;49.238;8.092;2023-03-20T08:02:57;23.20;;;10.13;;
68858;SDS011;55864;49.238;8.092;2023-03-20T08:04:58;24.27;;;10.00;;
68858;SDS011;55864;49.238;8.092;2023-03-20T08:06:58;21.38;;;8.70;;
68858;SDS011;55864;49.238;8.092;2023-03-20T08:08:59;22.75;;;8.82;;
68858;SDS011;55864;49.238;8.092;2023-03-20T08:10:59;20.13;;;8.07;;
68858;SDS011;55864;49.238;8.092;2023-03-20T08:13:00;100.80;;;12.75;;
68858;SDS011;55864;49.238;8.092;2023-03-20T08:15:01;25.65;;;9.57;;
68858;SDS011;55864;49.238;8.092;2023-03-20T08:17:03;20.83;;;8.85;;
68858;SDS011;55864;49.238;8.092;2023-03-20T08:19:03;21.08;;;8.80;;
68858;SDS011;55864;49.238;8.092;2023-03-20T08:21:04;23.83;;;9.20;;
68858;SDS011;55864;49.238;8.092;2023-03-20T08:23:05;22.33;;;8.57;;
68858;SDS011;55864;49.238;8.092;2023-03-20T08:25:06;20.70;;;9.15;;
68858;SDS011;55864;49.238;8.092;2023-03-20T08:27:07;22.92;;;9.10;;
68858;SDS011;55864;49.238;8.092;2023-03-20T08:29:08;21.85;;;9.57;;
68858;SDS011;55864;49.238;8.092;2023-03-20T08:31:08;22.33;;;9.17;;
68858;SDS011;55864;49.238;8.092;2023-03-20T08:33:11;23.40;;;9.13;;
68858;SDS011;55864;49.238;8.092;2023-03-20T08:37:13;21.10;;;10.20;;
68858;SDS011;55864;49.238;8.092;2023-03-20T08:39:13;21.13;;;9.30;;
68858;SDS011;55864;49.238;8.092;2023-03-20T08:41:14;22.65;;;10.13;;
68858;SDS011;55864;49.238;8.092;2023-03-20T08:43:15;20.23;;;8.87;;
68858;SDS011;55864;49.238;8.092;2023-03-20T08:45:15;20.48;;;8.63;;
68858;SDS011;55864;49.238;8.092;2023-03-20T08:47:16;21.77;;;8.93;;
68858;SDS011;55864;49.238;8.092;2023-03-20T08:51:21;42.58;;;16.95;;
68858;SDS011;55864;49.238;8.092;2023-03-20T08:53:21;74.65;;;26.98;;
68858;SDS011;55864;49.238;8.092;2023-03-20T08:55:22;124.10;;;38.00;;
68858;SDS011;55864;49.238;8.092;2023-03-20T08:57:23;73.60;;;25.13;;
68858;SDS011;55864;49.238;8.092;2023-03-20T08:59:23;37.97;;;17.23;;
68858;SDS011;55864;49.238;8.092;2023-03-20T09:01:24;26.42;;;11.95;;
68858;SDS011;55864;49.238;8.092;2023-03-20T09:03:24;32.28;;;15.70;;
68858;SDS011;55864;49.238;8.092;2023-03-20T09:05:26;25.30;;;11.00;;
68858;SDS011;55864;49.238;8.092;2023-03-20T09:07:27;24.40;;;10.88;;
68858;SDS011;55864;49.238;8.092;2023-03-20T09:09:27;22.48;;;9.75;;
68858;SDS011;55864;49.238;8.092;2023-03-20T09:11:28;23.55;;;11.20;;
68858;SDS011;55864;49.238;8.092;2023-03-20T09:13:29;21.13;;;9.52;;
68858;SDS011;55864;49.238;8.092;2023-03-20T09:15:29;23.13;;;9.82;;
68858;SDS011;55864;49.238;8.092;2023-03-20T09:17:30;23.15;;;9.23;;
68858;SDS011;55864;49.238;8.092;2023-03-20T09:19:30;23.58;;;8.38;;
68858;SDS011;55864;49.238;8.092;2023-03-20T09:21:32;20.50;;;8.98;;
68858;SDS011;55864;49.238;8.092;2023-03-20T09:23:33;21.23;;;9.73;;
68858;SDS011;55864;49.238;8.092;2023-03-20T09:25:33;20.50;;;9.57;;
68858;SDS011;55864;49.238;8.092;2023-03-20T09:27:34;20.02;;;8.30;;
68858;SDS011;55864;49.238;8.092;2023-03-20T09:29:35;22.15;;;9.48;;
68858;SDS011;55864;49.238;8.092;2023-03-20T09:31:35;20.25;;;8.93;;
68858;SDS011;55864;49.238;8.092;2023-03-20T09:33:36;19.33;;;8.40;;
68858;SDS011;55864;49.238;8.092;2023-03-20T09:35:36;20.88;;;9.10;;
68858;SDS011;55864;49.238;8.092;2023-03-20T09:37:38;22.35;;;8.40;;
68858;SDS011;55864;49.238;8.092;2023-03-20T09:39:39;16.77;;;7.43;;
68858;SDS011;55864;49.238;8.092;2023-03-20T09:41:39;16.02;;;6.82;;
68858;SDS011;55864;49.238;8.092;2023-03-20T09:43:50;16.83;;;7.05;;
68858;SDS011;55864;49.238;8.092;2023-03-20T09:45:59;16.00;;;6.90;;
68858;SDS011;55864;49.238;8.092;2023-03-20T09:48:10;15.95;;;6.30;;
68858;SDS011;55864;49.238;8.092;2023-03-20T09:50:17;13.98;;;6.63;;
68858;SDS011;55864;49.238;8.092;2023-03-20T09:52:25;17.75;;;7.63;;
68858;SDS011;55864;49.238;8.092;2023-03-20T09:54:32;15.80;;;6.50;;
68858;SDS011;55864;49.238;8.092;2023-03-20T09:56:35;12.48;;;5.47;;
68858;SDS011;55864;49.238;8.092;2023-03-20T09:58:36;13.02;;;5.43;;
68858;SDS011;55864;49.238;8.092;2023-03-20T10:00:39;14.25;;;5.93;;
68858;SDS011;55864;49.238;8.092;2023-03-20T10:02:45;16.55;;;6.40;;
68858;SDS011;55864;49.238;8.092;2023-03-20T10:04:49;13.95;;;5.82;;
68858;SDS011;55864;49.238;8.092;2023-03-20T10:06:52;15.25;;;5.63;;
68858;SDS011;55864;49.238;8.092;2023-03-20T10:08:53;15.00;;;5.80;;
68858;SDS011;55864;49.238;8.092;2023-03-20T10:10:57;14.32;;;5.60;;
68858;SDS011;55864;49.238;8.092;2023-03-20T10:15:51;12.15;;;4.80;;
68858;SDS011;55864;49.238;8.092;2023-03-20T10:18:00;11.88;;;4.72;;
68858;SDS011;55864;49.238;8.092;2023-03-20T10:20:11;12.13;;;4.25;;
68858;SDS011;55864;49.238;8.092;2023-03-20T10:22:15;11.45;;;4.50;;
68858;SDS011;55864;49.238;8.092;2023-03-20T10:24:21;10.30;;;4.07;;
68858;SDS011;55864;49.238;8.092;2023-03-20T10:26:29;10.20;;;4.15;;
68858;SDS011;55864;49.238;8.092;2023-03-20T10:28:33;12.18;;;4.85;;
68858;SDS011;55864;49.238;8.092;2023-03-20T10:30:46;13.30;;;5.00;;
68858;SDS011;55864;49.238;8.092;2023-03-20T10:32:53;10.80;;;4.43;;
68858;SDS011;55864;49.238;8.092;2023-03-20T10:35:10;8.30;;;3.60;;
68858;SDS011;55864;49.238;8.092;2023-03-20T10:37:21;9.40;;;4.00;;
68858;SDS011;55864;49.238;8.092;2023-03-20T10:39:33;9.32;;;3.40;;
68858;SDS011;55864;49.238;8.092;2023-03-20T10:41:46;9.15;;;3.88;;
68858;SDS011;55864;49.238;8.092;2023-03-20T10:43:52;9.90;;;3.53;;
68858;SDS011;55864;49.238;8.092;2023-03-20T10:45:57;8.68;;;3.70;;
68858;SDS011;55864;49.238;8.092;2023-03-20T10:48:01;8.70;;;3.50;;
68858;SDS011;55864;49.238;8.092;2023-03-20T10:50:06;7.93;;;3.60;;
68858;SDS011;55864;49.238;8.092;2023-03-20T10:52:15;9.40;;;3.40;;
68858;SDS011;55864;49.238;8.092;2023-03-20T10:54:20;7.47;;;3.30;;
68858;SDS011;55864;49.238;8.092;2023-03-20T10:56:26;8.02;;;3.28;;
68858;SDS011;55864;49.238;8.092;2023-03-20T10:58:34;7.55;;;3.35;;
68858;SDS011;55864;49.238;8.092;2023-03-20T11:00:37;8.38;;;2.75;;
68858;SDS011;55864;49.238;8.092;2023-03-20T11:02:38;7.50;;;2.88;;
68858;SDS011;55864;49.238;8.092;2023-03-20T11:04:38;8.75;;;2.90;;
68858;SDS011;55864;49.238;8.092;2023-03-20T11:06:40;6.43;;;2.83;;
68858;SDS011;55864;49.238;8.092;2023-03-20T11:08:47;5.40;;;2.47;;
68858;SDS011;55864;49.238;8.092;2023-03-20T11:10:56;7.80;;;2.40;;
68858;SDS011;55864;49.238;8.092;2023-03-20T11:12:58;8.82;;;3.05;;
68858;SDS011;55864;49.238;8.092;2023-03-20T11:15:21;7.68;;;2.95;;
68858;SDS011;55864;49.238;8.092;2023-03-20T11:17:23;9.38;;;3.25;;
68858;SDS011;55864;49.238;8.092;2023-03-20T11:19:28;6.95;;;2.92;;
68858;SDS011;55864;49.238;8.092;2023-03-20T11:21:33;6.55;;;2.72;;
68858;SDS011;55864;49.238;8.092;2023-03-20T11:23:42;6.88;;;2.80;;
68858;SDS011;55864;49.238;8.092;2023-03-20T11:25:47;9.18;;;2.90;;
68858;SDS011;55864;49.238;8.092;2023-03-20T11:27:51;8.25;;;2.60;;
68858;SDS011;55864;49.238;8.092;2023-03-20T11:29:54;6.63;;;2.70;;
68858;SDS011;55864;49.238;8.092;2023-03-20T11:32:03;9.05;;;3.00;;
68858;SDS011;55864;49.238;8.092;2023-03-20T11:34:10;7.95;;;2.80;;
68858;SDS011;55864;49.238;8.092;2023-03-20T11:36:22;6.55;;;2.67;;
68858;SDS011;55864;49.238;8.092;2023-03-20T11:38:24;6.55;;;2.47;;
68858;SDS011;55864;49.238;8.092;2023-03-20T11:40:29;6.78;;;2.80;;
68858;SDS011;55864;49.238;8.092;2023-03-20T11:42:31;7.55;;;2.80;;
68858;SDS011;55864;49.238;8.092;2023-03-20T11:44:32;7.13;;;2.70;;
68858;SDS011;55864;49.238;8.092;2023-03-20T11:46:33;7.00;;;2.90;;
68858;SDS011;55864;49.238;8.092;2023-03-20T11:48:36;8.27;;;3.05;;
68858;SDS011;55864;49.238;8.092;2023-03-20T11:50:41;7.32;;;2.70;;
68858;SDS011;55864;49.238;8.092;2023-03-20T11:52:44;6.55;;;2.58;;
68858;SDS011;55864;49.238;8.092;2023-03-20T11:54:45;7.75;;;3.05;;
68858;SDS011;55864;49.238;8.092;2023-03-20T11:56:51;8.02;;;2.20;;
68858;SDS011;55864;49.238;8.092;2023-03-20T11:58:54;6.47;;;2.58;;
68858;SDS011;55864;49.238;8.092;2023-03-20T12:02:57;7.03;;;2.63;;
68858;SDS011;55864;49.238;8.092;2023-03-20T12:04:59;6.82;;;2.40;;
68858;SDS011;55864;49.238;8.092;2023-03-20T12:07:01;6.30;;;2.30;;
68858;SDS011;55864;49.238;8.092;2023-03-20T12:09:06;5.75;;;2.30;;
68858;SDS011;55864;49.238;8.092;2023-03-20T12:11:18;6.75;;;2.90;;
68858;SDS011;55864;49.238;8.092;2023-03-20T12:13:28;6.35;;;2.58;;
68858;SDS011;55864;49.238;8.092;2023-03-20T12:15:32;9.90;;;2.58;;
68858;SDS011;55864;49.238;8.092;2023-03-20T12:17:41;6.35;;;2.35;;
68858;SDS011;55864;49.238;8.092;2023-03-20T12:19:45;6.03;;;2.63;;
68858;SDS011;55864;49.238;8.092;2023-03-20T12:21:51;6.35;;;2.30;;
68858;SDS011;55864;49.238;8.092;2023-03-20T12:23:58;5.75;;;2.40;;
68858;SDS011;55864;49.238;8.092;2023-03-20T12:26:03;8.10;;;2.55;;
68858;SDS011;55864;49.238;8.092;2023-03-20T12:28:11;7.65;;;2.10;;
68858;SDS011;55864;49.238;8.092;2023-03-20T12:30:17;6.70;;;2.10;;
68858;SDS011;55864;49.238;8.092;2023-03-20T12:32:25;6.18;;;2.10;;
68858;SDS011;55864;49.238;8.092;2023-03-20T12:34:31;6.53;;;2.30;;
68858;SDS011;55864;49.238;8.092;2023-03-20T12:36:35;6.10;;;2.20;;
68858;SDS011;55864;49.238;8.092;2023-03-20T12:38:39;7.18;;;2.20;;
68858;SDS011;55864;49.238;8.092;2023-03-20T12:40:41;6.47;;;2.03;;
68858;SDS011;55864;49.238;8.092;2023-03-20T12:42:46;5.38;;;2.00;;
68858;SDS011;55864;49.238;8.092;2023-03-20T12:44:57;5.30;;;1.90;;
68858;SDS011;55864;49.238;8.092;2023-03-20T12:47:06;5.90;;;1.67;;